sensor_id;sensor_type;location;lat;lon;timestamp;P1;durP1;ratioP1;P2;durP2;ratioP2
55800;SDS011;41730;51.960;20.158;2023-05-10T00:00:27;7.90;;;4.40;;
55800;SDS011;41730;51.960;20.158;2023-05-10T00:02:59;9.40;;;4.80;;
55800;SDS011;41730;51.960;20.158;2023-05-10T00:05:32;9.00;;;4.50;;
55800;SDS011;41730;51.960;20.158;2023-05-10T00:08:04;9.30;;;4.20;;
55800;SDS011;41730;51.960;20.158;2023-05-10T00:10:36;9.70;;;4.20;;
55800;SDS011;41730;51.960;20.158;2023-05-10T00:13:09;8.60;;;4.20;;
55800;SDS011;41730;51.960;20.158;2023-05-10T00:15:41;8.20;;;4.10;;
55800;SDS011;41730;51.960;20.158;2023-05-10T00:18:14;11.70;;;4.60;;
55800;SDS011;41730;51.960;20.158;2023-05-10T00:20:46;7.70;;;4.20;;
55800;SDS011;41730;51.960;20.158;2023-05-10T00:23:18;10.10;;;4.90;;
55800;SDS011;41730;51.960;20.158;2023-05-10T00:25:49;10.00;;;4.90;;
55800;SDS011;41730;51.960;20.158;2023-05-10T00:28:21;9.60;;;4.60;;
55800;SDS011;41730;51.960;20.158;2023-05-10T00:30:53;9.80;;;4.30;;
55800;SDS011;41730;51.960;20.158;2023-05-10T00:33:25;7.00;;;4.40;;
55800;SDS011;41730;51.960;20.158;2023-05-10T00:35:56;8.00;;;4.90;;
55800;SDS011;41730;51.960;20.158;2023-05-10T00:38:29;7.10;;;4.00;;
55800;SDS011;41730;51.960;20.158;2023-05-10T00:41:02;7.90;;;4.10;;
55800;SDS011;41730;51.960;20.158;2023-05-10T00:43:34;8.50;;;4.70;;
55800;SDS011;41730;51.960;20.158;2023-05-10T00:46:05;8.00;;;4.80;;
55800;SDS011;41730;51.960;20.158;2023-05-10T00:48:38;8.50;;;4.30;;
55800;SDS011;41730;51.960;20.158;2023-05-10T00:51:09;9.60;;;4.40;;
55800;SDS011;41730;51.960;20.158;2023-05-10T00:53:41;9.70;;;4.50;;
55800;SDS011;41730;51.960;20.158;2023-05-10T00:56:15;8.90;;;4.90;;
55800;SDS011;41730;51.960;20.158;2023-05-10T00:58:49;9.10;;;4.80;;
55800;SDS011;41730;51.960;20.158;2023-05-10T01:01:20;9.60;;;4.50;;
55800;SDS011;41730;51.960;20.158;2023-05-10T01:03:52;8.50;;;5.10;;
55800;SDS011;41730;51.960;20.158;2023-05-10T01:06:25;8.30;;;4.60;;
55800;SDS011;41730;51.960;20.158;2023-05-10T01:08:57;6.80;;;4.40;;
55800;SDS011;41730;51.960;20.158;2023-05-10T01:11:29;7.70;;;4.50;;
55800;SDS011;41730;51.960;20.158;2023-05-10T01:14:01;7.40;;;4.40;;
55800;SDS011;41730;51.960;20.158;2023-05-10T01:16:36;9.60;;;4.60;;
55800;SDS011;41730;51.960;20.158;2023-05-10T01:19:10;8.10;;;4.70;;
55800;SDS011;41730;51.960;20.158;2023-05-10T01:21:48;5.90;;;4.00;;
55800;SDS011;41730;51.960;20.158;2023-05-10T01:24:49;8.20;;;4.20;;
55800;SDS011;41730;51.960;20.158;2023-05-10T01:27:47;6.80;;;4.40;;
55800;SDS011;41730;51.960;20.158;2023-05-10T01:30:44;7.10;;;3.90;;
55800;SDS011;41730;51.960;20.158;2023-05-10T01:33:35;8.60;;;4.30;;
55800;SDS011;41730;51.960;20.158;2023-05-10T01:36:15;8.80;;;4.20;;
55800;SDS011;41730;51.960;20.158;2023-05-10T01:38:56;7.80;;;3.90;;
55800;SDS011;41730;51.960;20.158;2023-05-10T01:41:39;6.40;;;4.10;;
55800;SDS011;41730;51.960;20.158;2023-05-10T01:44:20;7.30;;;4.20;;
55800;SDS011;41730;51.960;20.158;2023-05-10T01:47:01;7.10;;;4.00;;
55800;SDS011;41730;51.960;20.158;2023-05-10T01:49:41;6.60;;;4.30;;
55800;SDS011;41730;51.960;20.158;2023-05-10T01:52:17;6.80;;;4.50;;
55800;SDS011;41730;51.960;20.158;2023-05-10T01:54:53;8.10;;;4.70;;
55800;SDS011;41730;51.960;20.158;2023-05-10T01:57:32;6.50;;;4.30;;
55800;SDS011;41730;51.960;20.158;2023-05-10T02:00:09;7.80;;;4.40;;
55800;SDS011;41730;51.960;20.158;2023-05-10T02:02:44;8.00;;;5.00;;
55800;SDS011;41730;51.960;20.158;2023-05-10T02:05:18;8.50;;;4.30;;
55800;SDS011;41730;51.960;20.158;2023-05-10T02:07:52;6.30;;;3.90;;
55800;SDS011;41730;51.960;20.158;2023-05-10T02:10:26;7.70;;;4.20;;
55800;SDS011;41730;51.960;20.158;2023-05-10T02:12:59;6.60;;;3.60;;
55800;SDS011;41730;51.960;20.158;2023-05-10T02:15:32;7.90;;;4.60;;
55800;SDS011;41730;51.960;20.158;2023-05-10T02:18:05;8.30;;;5.00;;
55800;SDS011;41730;51.960;20.158;2023-05-10T02:20:38;8.10;;;4.00;;
55800;SDS011;41730;51.960;20.158;2023-05-10T02:23:11;6.40;;;4.20;;
55800;SDS011;41730;51.960;20.158;2023-05-10T02:25:45;7.70;;;4.20;;
55800;SDS011;41730;51.960;20.158;2023-05-10T02:28:19;8.30;;;4.30;;
55800;SDS011;41730;51.960;20.158;2023-05-10T02:30:51;10.80;;;4.80;;
55800;SDS011;41730;51.960;20.158;2023-05-10T02:33:25;7.40;;;4.60;;
55800;SDS011;41730;51.960;20.158;2023-05-10T02:35:59;7.60;;;4.40;;
55800;SDS011;41730;51.960;20.158;2023-05-10T02:38:33;10.20;;;4.30;;
55800;SDS011;41730;51.960;20.158;2023-05-10T02:41:06;9.90;;;4.40;;
55800;SDS011;41730;51.960;20.158;2023-05-10T02:43:41;6.50;;;4.30;;
55800;SDS011;41730;51.960;20.158;2023-05-10T02:46:13;9.90;;;4.80;;
55800;SDS011;41730;51.960;20.158;2023-05-10T02:48:45;8.50;;;4.90;;
55800;SDS011;41730;51.960;20.158;2023-05-10T02:51:17;8.00;;;4.30;;
55800;SDS011;41730;51.960;20.158;2023-05-10T02:53:52;8.20;;;4.40;;
55800;SDS011;41730;51.960;20.158;2023-05-10T02:56:28;7.70;;;4.00;;
55800;SDS011;41730;51.960;20.158;2023-05-10T02:59:03;7.80;;;4.20;;
55800;SDS011;41730;51.960;20.158;2023-05-10T03:01:35;8.00;;;4.80;;
55800;SDS011;41730;51.960;20.158;2023-05-10T03:04:06;6.90;;;4.20;;
55800;SDS011;41730;51.960;20.158;2023-05-10T03:06:38;7.10;;;4.50;;
55800;SDS011;41730;51.960;20.158;2023-05-10T03:09:11;9.00;;;4.10;;
55800;SDS011;41730;51.960;20.158;2023-05-10T03:11:50;9.40;;;4.40;;
55800;SDS011;41730;51.960;20.158;2023-05-10T03:14:33;7.00;;;4.30;;
55800;SDS011;41730;51.960;20.158;2023-05-10T03:17:14;7.90;;;4.50;;
55800;SDS011;41730;51.960;20.158;2023-05-10T03:19:53;10.30;;;5.30;;
55800;SDS011;41730;51.960;20.158;2023-05-10T03:24:58;10.80;;;4.40;;
55800;SDS011;41730;51.960;20.158;2023-05-10T03:27:35;10.40;;;4.60;;
55800;SDS011;41730;51.960;20.158;2023-05-10T03:30:10;7.20;;;4.20;;
55800;SDS011;41730;51.960;20.158;2023-05-10T03:32:44;7.50;;;4.10;;
55800;SDS011;41730;51.960;20.158;2023-05-10T03:35:16;6.80;;;4.20;;
55800;SDS011;41730;51.960;20.158;2023-05-10T03:37:47;6.20;;;3.70;;
55800;SDS011;41730;51.960;20.158;2023-05-10T03:40:19;7.20;;;3.80;;
55800;SDS011;41730;51.960;20.158;2023-05-10T03:42:51;7.30;;;3.90;;
55800;SDS011;41730;51.960;20.158;2023-05-10T03:45:22;10.40;;;4.10;;
55800;SDS011;41730;51.960;20.158;2023-05-10T03:47:56;7.80;;;3.90;;
55800;SDS011;41730;51.960;20.158;2023-05-10T03:50:38;7.40;;;3.50;;
55800;SDS011;41730;51.960;20.158;2023-05-10T03:53:21;9.30;;;4.10;;
55800;SDS011;41730;51.960;20.158;2023-05-10T03:56:04;8.10;;;3.80;;
55800;SDS011;41730;51.960;20.158;2023-05-10T03:58:48;6.30;;;3.60;;
55800;SDS011;41730;51.960;20.158;2023-05-10T04:01:32;11.00;;;3.90;;
55800;SDS011;41730;51.960;20.158;2023-05-10T04:04:17;12.80;;;4.70;;
55800;SDS011;41730;51.960;20.158;2023-05-10T04:06:58;8.00;;;3.90;;
55800;SDS011;41730;51.960;20.158;2023-05-10T04:09:39;7.80;;;4.20;;
55800;SDS011;41730;51.960;20.158;2023-05-10T04:12:23;8.70;;;3.90;;
55800;SDS011;41730;51.960;20.158;2023-05-10T04:15:03;6.20;;;3.70;;
55800;SDS011;41730;51.960;20.158;2023-05-10T04:17:37;6.20;;;4.00;;
55800;SDS011;41730;51.960;20.158;2023-05-10T04:20:10;8.80;;;4.10;;
55800;SDS011;41730;51.960;20.158;2023-05-10T04:22:43;6.20;;;3.70;;
55800;SDS011;41730;51.960;20.158;2023-05-10T04:25:15;6.60;;;3.90;;
55800;SDS011;41730;51.960;20.158;2023-05-10T04:27:46;6.70;;;3.80;;
55800;SDS011;41730;51.960;20.158;2023-05-10T04:30:18;10.70;;;3.80;;
55800;SDS011;41730;51.960;20.158;2023-05-10T04:32:50;6.10;;;3.90;;
55800;SDS011;41730;51.960;20.158;2023-05-10T04:35:22;10.90;;;4.20;;
55800;SDS011;41730;51.960;20.158;2023-05-10T04:37:54;9.80;;;3.80;;
55800;SDS011;41730;51.960;20.158;2023-05-10T04:40:26;5.30;;;3.30;;
55800;SDS011;41730;51.960;20.158;2023-05-10T04:42:57;6.30;;;4.20;;
55800;SDS011;41730;51.960;20.158;2023-05-10T04:45:29;6.20;;;3.50;;
55800;SDS011;41730;51.960;20.158;2023-05-10T04:48:01;8.20;;;3.90;;
55800;SDS011;41730;51.960;20.158;2023-05-10T04:50:33;8.60;;;3.20;;
55800;SDS011;41730;51.960;20.158;2023-05-10T04:53:05;7.80;;;3.60;;
55800;SDS011;41730;51.960;20.158;2023-05-10T04:55:37;8.20;;;3.60;;
55800;SDS011;41730;51.960;20.158;2023-05-10T04:58:09;8.80;;;3.70;;
55800;SDS011;41730;51.960;20.158;2023-05-10T05:00:40;6.50;;;3.60;;
55800;SDS011;41730;51.960;20.158;2023-05-10T05:03:12;5.80;;;3.40;;
55800;SDS011;41730;51.960;20.158;2023-05-10T05:05:44;8.40;;;3.60;;
55800;SDS011;41730;51.960;20.158;2023-05-10T05:08:16;6.70;;;3.10;;
55800;SDS011;41730;51.960;20.158;2023-05-10T05:10:49;9.30;;;3.90;;
55800;SDS011;41730;51.960;20.158;2023-05-10T05:13:20;6.60;;;3.60;;
55800;SDS011;41730;51.960;20.158;2023-05-10T05:15:52;7.60;;;3.50;;
55800;SDS011;41730;51.960;20.158;2023-05-10T05:18:24;8.30;;;3.30;;
55800;SDS011;41730;51.960;20.158;2023-05-10T05:20:57;6.00;;;3.10;;
55800;SDS011;41730;51.960;20.158;2023-05-10T05:23:30;7.60;;;3.60;;
55800;SDS011;41730;51.960;20.158;2023-05-10T05:26:02;7.00;;;3.50;;
55800;SDS011;41730;51.960;20.158;2023-05-10T05:28:33;9.50;;;3.40;;
55800;SDS011;41730;51.960;20.158;2023-05-10T05:31:06;5.60;;;3.20;;
55800;SDS011;41730;51.960;20.158;2023-05-10T05:33:40;5.60;;;3.30;;
55800;SDS011;41730;51.960;20.158;2023-05-10T05:36:12;5.30;;;3.00;;
55800;SDS011;41730;51.960;20.158;2023-05-10T05:38:43;7.70;;;3.40;;
55800;SDS011;41730;51.960;20.158;2023-05-10T05:41:15;7.30;;;3.10;;
55800;SDS011;41730;51.960;20.158;2023-05-10T05:43:50;8.60;;;3.10;;
55800;SDS011;41730;51.960;20.158;2023-05-10T05:46:21;10.00;;;3.40;;
55800;SDS011;41730;51.960;20.158;2023-05-10T05:48:53;17.00;;;4.70;;
55800;SDS011;41730;51.960;20.158;2023-05-10T05:51:25;6.30;;;3.00;;
55800;SDS011;41730;51.960;20.158;2023-05-10T05:53:56;7.40;;;2.90;;
55800;SDS011;41730;51.960;20.158;2023-05-10T05:56:28;6.10;;;3.00;;
55800;SDS011;41730;51.960;20.158;2023-05-10T05:59:00;6.50;;;2.80;;
55800;SDS011;41730;51.960;20.158;2023-05-10T06:01:32;4.50;;;2.50;;
55800;SDS011;41730;51.960;20.158;2023-05-10T06:04:04;22.00;;;4.00;;
55800;SDS011;41730;51.960;20.158;2023-05-10T06:06:36;6.70;;;2.80;;
55800;SDS011;41730;51.960;20.158;2023-05-10T06:09:08;5.00;;;2.90;;
55800;SDS011;41730;51.960;20.158;2023-05-10T06:11:40;4.90;;;2.70;;
55800;SDS011;41730;51.960;20.158;2023-05-10T06:14:12;9.10;;;2.60;;
55800;SDS011;41730;51.960;20.158;2023-05-10T06:16:45;9.40;;;3.10;;
55800;SDS011;41730;51.960;20.158;2023-05-10T06:19:18;7.10;;;3.10;;
55800;SDS011;41730;51.960;20.158;2023-05-10T06:21:50;4.70;;;2.40;;
55800;SDS011;41730;51.960;20.158;2023-05-10T06:24:22;6.60;;;2.30;;
55800;SDS011;41730;51.960;20.158;2023-05-10T06:26:56;6.60;;;2.50;;
55800;SDS011;41730;51.960;20.158;2023-05-10T06:29:29;5.00;;;2.50;;
55800;SDS011;41730;51.960;20.158;2023-05-10T06:32:01;7.90;;;2.60;;
55800;SDS011;41730;51.960;20.158;2023-05-10T06:34:33;8.60;;;2.70;;
55800;SDS011;41730;51.960;20.158;2023-05-10T06:37:04;10.20;;;2.70;;
55800;SDS011;41730;51.960;20.158;2023-05-10T06:39:36;13.60;;;3.20;;
55800;SDS011;41730;51.960;20.158;2023-05-10T06:42:07;10.90;;;2.70;;
55800;SDS011;41730;51.960;20.158;2023-05-10T06:44:39;5.20;;;2.40;;
55800;SDS011;41730;51.960;20.158;2023-05-10T06:47:11;7.60;;;2.40;;
55800;SDS011;41730;51.960;20.158;2023-05-10T06:49:43;8.00;;;2.70;;
55800;SDS011;41730;51.960;20.158;2023-05-10T06:52:16;6.00;;;2.30;;
55800;SDS011;41730;51.960;20.158;2023-05-10T06:54:48;6.90;;;2.30;;
55800;SDS011;41730;51.960;20.158;2023-05-10T06:57:20;6.20;;;2.30;;
55800;SDS011;41730;51.960;20.158;2023-05-10T06:59:59;7.90;;;2.50;;
55800;SDS011;41730;51.960;20.158;2023-05-10T07:02:34;4.40;;;2.50;;
55800;SDS011;41730;51.960;20.158;2023-05-10T07:05:07;3.80;;;2.20;;
55800;SDS011;41730;51.960;20.158;2023-05-10T07:07:40;10.20;;;2.30;;
55800;SDS011;41730;51.960;20.158;2023-05-10T07:10:11;9.60;;;2.80;;
55800;SDS011;41730;51.960;20.158;2023-05-10T07:12:43;9.30;;;2.80;;
55800;SDS011;41730;51.960;20.158;2023-05-10T07:15:16;5.60;;;2.30;;
55800;SDS011;41730;51.960;20.158;2023-05-10T07:17:48;15.30;;;2.40;;
55800;SDS011;41730;51.960;20.158;2023-05-10T07:20:21;20.60;;;4.00;;
55800;SDS011;41730;51.960;20.158;2023-05-10T07:22:53;7.50;;;2.50;;
55800;SDS011;41730;51.960;20.158;2023-05-10T07:25:25;6.70;;;2.40;;
55800;SDS011;41730;51.960;20.158;2023-05-10T07:27:57;15.60;;;2.80;;
55800;SDS011;41730;51.960;20.158;2023-05-10T07:30:29;8.00;;;2.80;;
55800;SDS011;41730;51.960;20.158;2023-05-10T07:33:01;13.10;;;2.50;;
55800;SDS011;41730;51.960;20.158;2023-05-10T07:35:33;9.50;;;2.20;;
55800;SDS011;41730;51.960;20.158;2023-05-10T07:38:05;16.00;;;3.50;;
55800;SDS011;41730;51.960;20.158;2023-05-10T07:40:39;12.00;;;2.90;;
55800;SDS011;41730;51.960;20.158;2023-05-10T07:43:11;7.60;;;2.30;;
55800;SDS011;41730;51.960;20.158;2023-05-10T07:45:42;4.90;;;2.30;;
55800;SDS011;41730;51.960;20.158;2023-05-10T07:48:15;12.70;;;2.40;;
55800;SDS011;41730;51.960;20.158;2023-05-10T07:50:47;5.00;;;2.10;;
55800;SDS011;41730;51.960;20.158;2023-05-10T07:53:20;13.50;;;2.50;;
55800;SDS011;41730;51.960;20.158;2023-05-10T07:55:54;5.60;;;2.40;;
55800;SDS011;41730;51.960;20.158;2023-05-10T07:58:28;11.00;;;3.60;;
55800;SDS011;41730;51.960;20.158;2023-05-10T08:01:00;10.00;;;2.20;;
55800;SDS011;41730;51.960;20.158;2023-05-10T08:03:32;10.20;;;2.20;;
55800;SDS011;41730;51.960;20.158;2023-05-10T08:06:05;7.30;;;2.40;;
55800;SDS011;41730;51.960;20.158;2023-05-10T08:08:37;7.10;;;2.10;;
55800;SDS011;41730;51.960;20.158;2023-05-10T08:11:09;6.50;;;1.90;;
55800;SDS011;41730;51.960;20.158;2023-05-10T08:13:40;11.40;;;2.20;;
55800;SDS011;41730;51.960;20.158;2023-05-10T08:16:13;8.40;;;2.10;;
55800;SDS011;41730;51.960;20.158;2023-05-10T08:18:45;3.90;;;2.00;;
55800;SDS011;41730;51.960;20.158;2023-05-10T08:21:17;5.80;;;1.90;;
55800;SDS011;41730;51.960;20.158;2023-05-10T08:23:51;4.60;;;2.20;;
55800;SDS011;41730;51.960;20.158;2023-05-10T08:26:23;4.70;;;2.00;;
55800;SDS011;41730;51.960;20.158;2023-05-10T08:28:55;6.80;;;2.10;;
55800;SDS011;41730;51.960;20.158;2023-05-10T08:31:27;6.50;;;2.10;;
55800;SDS011;41730;51.960;20.158;2023-05-10T08:33:59;3.90;;;1.80;;
55800;SDS011;41730;51.960;20.158;2023-05-10T08:36:31;7.40;;;2.40;;
55800;SDS011;41730;51.960;20.158;2023-05-10T08:39:03;4.80;;;2.10;;
55800;SDS011;41730;51.960;20.158;2023-05-10T08:41:50;13.30;;;2.70;;
55800;SDS011;41730;51.960;20.158;2023-05-10T08:44:25;5.40;;;2.40;;
55800;SDS011;41730;51.960;20.158;2023-05-10T08:46:57;7.10;;;2.20;;
55800;SDS011;41730;51.960;20.158;2023-05-10T08:49:33;7.90;;;2.00;;
55800;SDS011;41730;51.960;20.158;2023-05-10T08:52:06;5.20;;;1.90;;
55800;SDS011;41730;51.960;20.158;2023-05-10T08:54:42;5.40;;;2.50;;
55800;SDS011;41730;51.960;20.158;2023-05-10T08:57:14;5.10;;;2.30;;
55800;SDS011;41730;51.960;20.158;2023-05-10T08:59:45;8.60;;;2.30;;
55800;SDS011;41730;51.960;20.158;2023-05-10T09:02:17;11.30;;;2.30;;
55800;SDS011;41730;51.960;20.158;2023-05-10T09:04:50;7.70;;;2.60;;
55800;SDS011;41730;51.960;20.158;2023-05-10T09:07:23;3.10;;;1.90;;
55800;SDS011;41730;51.960;20.158;2023-05-10T09:09:55;5.30;;;1.80;;
55800;SDS011;41730;51.960;20.158;2023-05-10T09:12:28;8.80;;;2.20;;
55800;SDS011;41730;51.960;20.158;2023-05-10T09:15:01;4.70;;;1.90;;
55800;SDS011;41730;51.960;20.158;2023-05-10T09:17:35;4.50;;;2.30;;
55800;SDS011;41730;51.960;20.158;2023-05-10T09:20:08;4.50;;;2.00;;
55800;SDS011;41730;51.960;20.158;2023-05-10T09:22:40;9.20;;;2.00;;
55800;SDS011;41730;51.960;20.158;2023-05-10T09:25:13;16.10;;;2.50;;
55800;SDS011;41730;51.960;20.158;2023-05-10T09:27:47;8.80;;;1.90;;
55800;SDS011;41730;51.960;20.158;2023-05-10T09:30:23;4.20;;;2.10;;
55800;SDS011;41730;51.960;20.158;2023-05-10T09:32:56;7.30;;;1.90;;
55800;SDS011;41730;51.960;20.158;2023-05-10T09:35:29;5.00;;;2.00;;
55800;SDS011;41730;51.960;20.158;2023-05-10T09:38:03;3.40;;;2.00;;
55800;SDS011;41730;51.960;20.158;2023-05-10T09:40:35;5.40;;;2.30;;
55800;SDS011;41730;51.960;20.158;2023-05-10T09:43:07;5.10;;;2.10;;
55800;SDS011;41730;51.960;20.158;2023-05-10T09:45:40;4.70;;;2.20;;
55800;SDS011;41730;51.960;20.158;2023-05-10T09:48:12;7.40;;;1.80;;
55800;SDS011;41730;51.960;20.158;2023-05-10T09:50:44;6.20;;;2.00;;
55800;SDS011;41730;51.960;20.158;2023-05-10T09:53:26;7.40;;;2.10;;
55800;SDS011;41730;51.960;20.158;2023-05-10T09:55:58;5.40;;;2.30;;
55800;SDS011;41730;51.960;20.158;2023-05-10T09:58:29;4.90;;;2.20;;
55800;SDS011;41730;51.960;20.158;2023-05-10T10:01:06;5.90;;;2.10;;
55800;SDS011;41730;51.960;20.158;2023-05-10T10:03:42;6.50;;;2.20;;
55800;SDS011;41730;51.960;20.158;2023-05-10T10:06:14;7.40;;;2.10;;
55800;SDS011;41730;51.960;20.158;2023-05-10T10:08:57;5.40;;;2.10;;
55800;SDS011;41730;51.960;20.158;2023-05-10T10:11:29;6.30;;;2.20;;
55800;SDS011;41730;51.960;20.158;2023-05-10T10:14:01;3.60;;;1.80;;
55800;SDS011;41730;51.960;20.158;2023-05-10T10:16:33;4.80;;;1.90;;
55800;SDS011;41730;51.960;20.158;2023-05-10T10:19:18;3.50;;;2.00;;
55800;SDS011;41730;51.960;20.158;2023-05-10T10:21:51;8.20;;;2.10;;
55800;SDS011;41730;51.960;20.158;2023-05-10T10:24:22;5.10;;;1.90;;
55800;SDS011;41730;51.960;20.158;2023-05-10T10:26:54;21.90;;;3.30;;
55800;SDS011;41730;51.960;20.158;2023-05-10T10:29:34;8.20;;;3.10;;
55800;SDS011;41730;51.960;20.158;2023-05-10T10:32:12;8.50;;;2.10;;
55800;SDS011;41730;51.960;20.158;2023-05-10T10:34:55;9.70;;;2.20;;
55800;SDS011;41730;51.960;20.158;2023-05-10T10:40:46;5.20;;;2.00;;
55800;SDS011;41730;51.960;20.158;2023-05-10T10:43:23;8.00;;;3.70;;
55800;SDS011;41730;51.960;20.158;2023-05-10T10:46:12;5.30;;;2.10;;
55800;SDS011;41730;51.960;20.158;2023-05-10T10:48:43;4.40;;;2.00;;
55800;SDS011;41730;51.960;20.158;2023-05-10T10:51:16;5.00;;;1.90;;
55800;SDS011;41730;51.960;20.158;2023-05-10T10:53:45;5.30;;;2.30;;
55800;SDS011;41730;51.960;20.158;2023-05-10T10:56:17;11.20;;;5.00;;
55800;SDS011;41730;51.960;20.158;2023-05-10T10:58:51;8.10;;;3.80;;
55800;SDS011;41730;51.960;20.158;2023-05-10T11:01:20;18.30;;;3.20;;
55800;SDS011;41730;51.960;20.158;2023-05-10T11:04:17;9.60;;;2.40;;
55800;SDS011;41730;51.960;20.158;2023-05-10T11:06:47;7.00;;;3.00;;
55800;SDS011;41730;51.960;20.158;2023-05-10T11:09:16;6.00;;;2.20;;
55800;SDS011;41730;51.960;20.158;2023-05-10T11:11:52;4.50;;;1.90;;
55800;SDS011;41730;51.960;20.158;2023-05-10T11:14:22;5.90;;;2.20;;
55800;SDS011;41730;51.960;20.158;2023-05-10T11:16:52;7.30;;;2.30;;
55800;SDS011;41730;51.960;20.158;2023-05-10T11:19:21;5.50;;;3.10;;
55800;SDS011;41730;51.960;20.158;2023-05-10T11:24:41;5.30;;;2.20;;
55800;SDS011;41730;51.960;20.158;2023-05-10T11:27:25;6.20;;;2.20;;
55800;SDS011;41730;51.960;20.158;2023-05-10T11:29:54;5.40;;;2.30;;
55800;SDS011;41730;51.960;20.158;2023-05-10T11:32:24;4.60;;;2.20;;
55800;SDS011;41730;51.960;20.158;2023-05-10T11:34:54;7.40;;;3.00;;
55800;SDS011;41730;51.960;20.158;2023-05-10T11:37:23;3.20;;;2.00;;
55800;SDS011;41730;51.960;20.158;2023-05-10T11:39:59;6.20;;;2.00;;
55800;SDS011;41730;51.960;20.158;2023-05-10T11:42:30;4.90;;;2.00;;
55800;SDS011;41730;51.960;20.158;2023-05-10T11:45:01;5.40;;;2.40;;
55800;SDS011;41730;51.960;20.158;2023-05-10T11:47:30;4.90;;;2.30;;
55800;SDS011;41730;51.960;20.158;2023-05-10T11:49:59;6.50;;;2.40;;
55800;SDS011;41730;51.960;20.158;2023-05-10T11:52:29;3.80;;;2.00;;
55800;SDS011;41730;51.960;20.158;2023-05-10T11:55:03;5.80;;;2.40;;
55800;SDS011;41730;51.960;20.158;2023-05-10T11:57:34;5.50;;;2.10;;
55800;SDS011;41730;51.960;20.158;2023-05-10T12:00:06;6.70;;;2.10;;
55800;SDS011;41730;51.960;20.158;2023-05-10T12:02:36;3.80;;;2.10;;
55800;SDS011;41730;51.960;20.158;2023-05-10T12:05:06;8.00;;;2.30;;
55800;SDS011;41730;51.960;20.158;2023-05-10T12:07:39;6.60;;;2.30;;
55800;SDS011;41730;51.960;20.158;2023-05-10T12:10:09;7.40;;;2.00;;
55800;SDS011;41730;51.960;20.158;2023-05-10T12:12:42;4.60;;;1.90;;
55800;SDS011;41730;51.960;20.158;2023-05-10T12:15:12;6.30;;;2.00;;
55800;SDS011;41730;51.960;20.158;2023-05-10T12:17:47;4.60;;;1.90;;
55800;SDS011;41730;51.960;20.158;2023-05-10T12:20:17;4.00;;;1.90;;
55800;SDS011;41730;51.960;20.158;2023-05-10T12:22:49;8.80;;;2.10;;
55800;SDS011;41730;51.960;20.158;2023-05-10T12:25:19;5.00;;;2.30;;
55800;SDS011;41730;51.960;20.158;2023-05-10T12:27:51;6.70;;;2.40;;
55800;SDS011;41730;51.960;20.158;2023-05-10T12:30:38;3.80;;;2.00;;
55800;SDS011;41730;51.960;20.158;2023-05-10T12:33:09;7.70;;;2.10;;
55800;SDS011;41730;51.960;20.158;2023-05-10T12:35:49;7.70;;;2.10;;
55800;SDS011;41730;51.960;20.158;2023-05-10T12:38:25;5.10;;;2.00;;
55800;SDS011;41730;51.960;20.158;2023-05-10T12:40:56;5.90;;;1.90;;
55800;SDS011;41730;51.960;20.158;2023-05-10T12:43:27;4.10;;;2.10;;
55800;SDS011;41730;51.960;20.158;2023-05-10T12:45:56;4.40;;;1.80;;
55800;SDS011;41730;51.960;20.158;2023-05-10T12:48:25;10.70;;;2.60;;
55800;SDS011;41730;51.960;20.158;2023-05-10T12:50:55;8.00;;;2.80;;
55800;SDS011;41730;51.960;20.158;2023-05-10T12:53:24;4.20;;;2.20;;
55800;SDS011;41730;51.960;20.158;2023-05-10T12:55:53;7.60;;;2.10;;
55800;SDS011;41730;51.960;20.158;2023-05-10T12:58:22;5.10;;;2.10;;
55800;SDS011;41730;51.960;20.158;2023-05-10T13:01:02;6.40;;;2.10;;
55800;SDS011;41730;51.960;20.158;2023-05-10T13:03:32;7.70;;;2.40;;
55800;SDS011;41730;51.960;20.158;2023-05-10T13:06:01;7.10;;;2.10;;
55800;SDS011;41730;51.960;20.158;2023-05-10T13:08:30;13.40;;;2.80;;
55800;SDS011;41730;51.960;20.158;2023-05-10T13:11:00;8.40;;;2.10;;
55800;SDS011;41730;51.960;20.158;2023-05-10T13:13:31;2.80;;;1.90;;
55800;SDS011;41730;51.960;20.158;2023-05-10T13:16:00;6.20;;;2.00;;
55800;SDS011;41730;51.960;20.158;2023-05-10T13:18:29;5.20;;;1.90;;
55800;SDS011;41730;51.960;20.158;2023-05-10T13:20:58;3.80;;;1.70;;
55800;SDS011;41730;51.960;20.158;2023-05-10T13:23:27;14.70;;;2.70;;
55800;SDS011;41730;51.960;20.158;2023-05-10T13:25:55;7.50;;;1.80;;
55800;SDS011;41730;51.960;20.158;2023-05-10T13:28:24;7.20;;;2.50;;
55800;SDS011;41730;51.960;20.158;2023-05-10T13:30:53;6.10;;;2.20;;
55800;SDS011;41730;51.960;20.158;2023-05-10T13:33:22;19.50;;;2.60;;
55800;SDS011;41730;51.960;20.158;2023-05-10T13:35:51;5.80;;;2.10;;
55800;SDS011;41730;51.960;20.158;2023-05-10T13:38:22;4.50;;;2.10;;
55800;SDS011;41730;51.960;20.158;2023-05-10T13:40:51;5.20;;;2.00;;
55800;SDS011;41730;51.960;20.158;2023-05-10T13:43:21;3.00;;;1.90;;
55800;SDS011;41730;51.960;20.158;2023-05-10T13:45:51;4.90;;;1.80;;
55800;SDS011;41730;51.960;20.158;2023-05-10T13:48:20;8.50;;;2.20;;
55800;SDS011;41730;51.960;20.158;2023-05-10T13:50:49;5.30;;;2.50;;
55800;SDS011;41730;51.960;20.158;2023-05-10T13:53:20;6.00;;;2.10;;
55800;SDS011;41730;51.960;20.158;2023-05-10T13:55:49;5.90;;;2.30;;
55800;SDS011;41730;51.960;20.158;2023-05-10T13:58:20;3.60;;;1.90;;
55800;SDS011;41730;51.960;20.158;2023-05-10T14:00:49;7.80;;;2.20;;
55800;SDS011;41730;51.960;20.158;2023-05-10T14:03:18;6.60;;;2.70;;
55800;SDS011;41730;51.960;20.158;2023-05-10T14:05:48;5.00;;;2.40;;
55800;SDS011;41730;51.960;20.158;2023-05-10T14:08:17;6.40;;;3.40;;
55800;SDS011;41730;51.960;20.158;2023-05-10T14:10:46;5.70;;;2.10;;
55800;SDS011;41730;51.960;20.158;2023-05-10T14:13:16;6.70;;;2.20;;
55800;SDS011;41730;51.960;20.158;2023-05-10T14:15:45;6.60;;;2.00;;
55800;SDS011;41730;51.960;20.158;2023-05-10T14:18:14;5.50;;;2.10;;
55800;SDS011;41730;51.960;20.158;2023-05-10T14:20:43;6.80;;;2.20;;
55800;SDS011;41730;51.960;20.158;2023-05-10T14:23:12;5.40;;;2.20;;
55800;SDS011;41730;51.960;20.158;2023-05-10T14:25:41;4.40;;;1.90;;
55800;SDS011;41730;51.960;20.158;2023-05-10T14:28:10;7.10;;;2.20;;
55800;SDS011;41730;51.960;20.158;2023-05-10T14:30:39;6.60;;;2.70;;
55800;SDS011;41730;51.960;20.158;2023-05-10T14:33:09;39.00;;;4.70;;
55800;SDS011;41730;51.960;20.158;2023-05-10T14:35:40;4.90;;;1.90;;
55800;SDS011;41730;51.960;20.158;2023-05-10T14:38:09;9.70;;;2.20;;
55800;SDS011;41730;51.960;20.158;2023-05-10T14:40:39;4.00;;;2.10;;
55800;SDS011;41730;51.960;20.158;2023-05-10T14:43:08;5.20;;;2.00;;
55800;SDS011;41730;51.960;20.158;2023-05-10T14:45:37;8.10;;;2.40;;
55800;SDS011;41730;51.960;20.158;2023-05-10T14:48:07;4.50;;;1.90;;
55800;SDS011;41730;51.960;20.158;2023-05-10T14:50:39;8.00;;;2.20;;
55800;SDS011;41730;51.960;20.158;2023-05-10T14:53:09;5.40;;;2.30;;
55800;SDS011;41730;51.960;20.158;2023-05-10T14:55:38;8.40;;;2.30;;
55800;SDS011;41730;51.960;20.158;2023-05-10T14:58:08;7.30;;;2.20;;
55800;SDS011;41730;51.960;20.158;2023-05-10T15:00:37;9.30;;;2.20;;
55800;SDS011;41730;51.960;20.158;2023-05-10T15:03:06;4.60;;;2.10;;
55800;SDS011;41730;51.960;20.158;2023-05-10T15:05:35;6.20;;;2.30;;
55800;SDS011;41730;51.960;20.158;2023-05-10T15:08:04;5.70;;;2.10;;
55800;SDS011;41730;51.960;20.158;2023-05-10T15:10:34;5.00;;;2.20;;
55800;SDS011;41730;51.960;20.158;2023-05-10T15:13:04;10.10;;;2.50;;
55800;SDS011;41730;51.960;20.158;2023-05-10T15:15:32;9.60;;;2.00;;